CheckWX is a tool to help pilots better visualize weather data.  It is not intended as a substitute for an official pre-flight weather briefing.

00:40:56 UTC

EGPI METAR
Islay Airport
Port Ellen, United Kingdom
Current

21 mins ago

EGPI 270020Z AUTO 25012KT 9999 OVC048/// 09/07 Q1032
Observed
Mar-27 @ 00:20 UTC
Wind
  • 250° at 12 KTS
Visibility
10,000+ meters
Flight Rules
VFR
Cloud Levels
  • Overcast at 4,800' AGL
Temperature
C / 48°F
Dewpoint
C / 45°F
Humidity
87%
Altimeter
30.47" Hg
Pressure
1031.91 hPa
Previous

51 mins ago

EGPI 262350Z AUTO 25012KT 9999 OVC046/// 09/07 Q1032
Observed
Mar-26 @ 23:50 UTC
Wind
  • 250° at 12 KTS
Visibility
10,000+ meters
Flight Rules
VFR
Cloud Levels
  • Overcast at 4,600' AGL
Temperature
C / 48°F
Dewpoint
C / 45°F
Humidity
87%
Altimeter
30.47" Hg
Pressure
1031.91 hPa
Previous

1 hour ago

EGPI 262320Z AUTO 24011KT 9999 OVC045/// 09/07 Q1032
Observed
Mar-26 @ 23:20 UTC
Wind
  • 240° at 11 KTS
Visibility
10,000+ meters
Flight Rules
VFR
Cloud Levels
  • Overcast at 4,500' AGL
Temperature
C / 48°F
Dewpoint
C / 45°F
Humidity
87%
Altimeter
30.47" Hg
Pressure
1031.91 hPa